Tierra Amarilla, New Mexico
Current Conditions -  °F | °C
As of 5:15 PM on Wednesday 28 Jan 2015 (Local Time) from KPSO Reporting Station
Clear Clear  
Wind Chill: 43°   Ceiling: Unl
Heat Index: 46°   Visibility: 10mi
Dew Point: 25°   Wind: 5mph
Humidity: 44%   Direction: 230°SW
Pressure: 30.25"   Gusts: NA
Location:  36.7°N, 106.55°W
Report Text: KPSO 290015Z AUTO 23004KT 10SM CLR 08/M04 A3025 RMK AO2 T00761040
Loading
Personal Weather Stations






























Interactive Weather Map New forecast layout! Learn more

10-Day Weather Forecast

Advertisements
Track Severe Weather on mobile